METAR stanice u blizini

 

LYBE - Beograd / Surčin, Srbija
Ažurirano: 22/08/2019 06:30
Vedro
Vedro
 Pravac vetra Z
Vetar: Z 15 km/h
Temperatura: 18°C
Tačka rose: 15°C
Vlažnost: 83%
Pritisak: 1023 hPa
Pregled: Vedro
Vidljivost: greater than 10 km
2019/08/22 04:30 LYBE 220430Z 27008KT CAVOK 18/15 Q1023 NOSIG
LYBT - Beograd / Batajnica, Srbija
Ažurirano: 22/08/2019 06:30
Vedro
Vedro
 Pravac vetra ZJZ
Vetar: ZJZ 7 km/h
Temperatura: 17°C
Tačka rose: 15°C
Vlažnost: 88%
Pritisak: 1022 hPa
Pregled: Vedro
Vidljivost: greater than 10 km
2019/08/22 04:30 LYBT 220430Z 24004KT CAVOK 17/15 Q1022 NOSIG
LYVR - Vršac, Srbija
Ažurirano: 22/08/2019 06:30
Vedro
Vedro
 Pravac vetra JJZ
Vetar: JJZ 6 km/h
Temperatura: 19°C
Tačka rose: 16°C
Vlažnost: 83%
Pritisak: 1022 hPa
Pregled: Vedro
Vidljivost: greater than 10 km
2019/08/22 04:30 LYVR 220430Z 21003KT 180V240 CAVOK 19/16 Q1022 NOSIG
 
LYKV - Lađevci, Srbija
Ažurirano: 22/08/2019 06:30
Vedro
Vedro
 Pravac vetra Z
Vetar: Z 7 km/h
Temperatura: 20°C
Tačka rose: 17°C
Vlažnost: 83%
Pritisak: 1023 hPa
Pregled: Vedro
Vidljivost: greater than 10 km
2019/08/22 04:30 LYKV 220430Z 28004KT CAVOK 20/17 Q1023 NOSIG
LYNI - Niš, Srbija
Ažurirano: 22/08/2019 06:30
Vedro
Vedro
 Pravac vetra varies
Vetar: varies 7 km/h
Temperatura: 20°C
Tačka rose: 14°C
Vlažnost: 69%
Pritisak: 1022 hPa
Pregled: Vedro
Vidljivost: greater than 10 km
2019/08/22 04:30 LYNI 220430Z VRB04KT CAVOK 20/14 Q1022 BECMG 32012KT
BKPR - Priština, Srbija
Ažurirano: 22/08/2019 07:00
Vedro
Vedro
 Pravac vetra varies
Vetar: varies 4 km/h
Temperatura: 16°C
Tačka rose: 9°C
Vlažnost: 63%
Pritisak: 1023 hPa
Pregled: Vedro
Vidljivost: greater than 10 km
2019/08/22 05:00 BKPR 220500Z VRB02KT CAVOK 16/09 Q1023 NOSIG
 
LHPP - Pecs / Pogany, Hungary
Ažurirano: 21/08/2019 18:45
NOT Current
Vedro
Vedro
 Pravac vetra S
Vetar: S 19 km/h
Temperatura: 25°C
Tačka rose: 16°C
Vlažnost: 57%
Pritisak: 1021 hPa
Pregled: Vedro
Vidljivost: greater than 10 km
2019/08/21 16:45 LHPP 211645Z 01010KT CAVOK 25/16 Q1021
LHUD - Szeged, Hungary
Ažurirano: 04/07/2019 01:45
NOT Current
Vedro
Vedro
 Pravac vetra S
Vetar: S 7 km/h
Temperatura: 18°C
Tačka rose: 13°C
Vlažnost: 73%
Pritisak: 1019 hPa
Pregled: Vedro
Vidljivost: greater than 10 km
2019/07/03 23:45 LHUD 032345Z 35004KT CAVOK 18/13 Q1019
LRTR - Timisoara, Romania
Ažurirano: 22/08/2019 06:30
Vedro
Vedro
 Pravac vetra SI
Vetar: SI 7 km/h
Temperatura: 19°C
Tačka rose: 17°C
Vlažnost: 88%
Pritisak: 1021 hPa
Pregled: Vedro
Vidljivost: greater than 10 km
2019/08/22 04:30 LRTR 220430Z 05004KT CAVOK 19/17 Q1021 NOSIG
 
LRCV - Craiova, Romania
Ažurirano: 22/08/2019 06:30
Few Clouds
Few Clouds
 Pravac vetra SSI
Vetar: SSI 6 km/h
Temperatura: 20°C
Tačka rose: 15°C
Vlažnost: 73%
Pritisak: 1020 hPa
Oblaci: Few Clouds
Vidljivost: 10 km
Cloud details: Few Clouds 2438 m
2019/08/22 04:30 LRCV 220430Z AUTO 02003KT 9999 FEW080/// 20/15 Q1020
LBSF - Sofia, Bulgaria
Ažurirano: 22/08/2019 07:00
Vedro
Vedro
 Pravac vetra varies
Vetar: varies 4 km/h
Temperatura: 17°C
Tačka rose: 11°C
Vlažnost: 68%
Pritisak: 1023 hPa
Pregled: Vedro
Vidljivost: greater than 10 km
2019/08/22 05:00 LBSF 220500Z VRB02KT CAVOK 17/11 Q1023 NOSIG
LWSK - Skoplje, Makedonija
Ažurirano: 22/08/2019 07:00
Vedro
Vedro
 Pravac vetra calm
Vetar: Tišina
Temperatura: 18°C
Tačka rose: 11°C
Vlažnost: 64%
Pritisak: 1021 hPa
Pregled: Vedro
Vidljivost: greater than 10 km
2019/08/22 05:00 LWSK 220500Z 00000KT CAVOK 18/11 Q1021 NOSIG
 
LYPG - Podgorica, Crna Gora
Ažurirano: 22/08/2019 06:30
Vedro
Vedro
 Pravac vetra S
Vetar: S 15 km/h
Temperatura: 25°C
Tačka rose: 10°C
Vlažnost: 39%
Pritisak: 1017 hPa
Pregled: Vedro
Vidljivost: greater than 10 km
2019/08/22 04:30 LYPG 220430Z 35008KT CAVOK 25/10 Q1017 NOSIG
LQSA - Sarajevo, Bosna i Hercegovina
Ažurirano: 22/08/2019 06:30
Few Clouds
Few Clouds
 Pravac vetra JJI
Vetar: JJI 6 km/h
Temperatura: 17°C
Tačka rose: 16°C
Vlažnost: 94%
Pritisak: 1024 hPa
Oblaci: Few Clouds
Vidljivost: 10 km
Cloud details: Few Clouds 762 m
2019/08/22 04:30 LQSA 220430Z 15003KT 100V170 9999 FEW025 17/16 Q1024 NOSIG
LDOS - Osijek, Hrvatksa
Ažurirano: 22/08/2019 06:30
Vedro
Vedro
 Pravac vetra ZSZ
Vetar: ZSZ 11 km/h
Temperatura: 16°C
Tačka rose: 14°C
Vlažnost: 88%
Pritisak: 1023 hPa
Pregled: Vedro
Vidljivost: greater than 10 km
2019/08/22 04:30 LDOS 220430Z 29006KT CAVOK 16/14 Q1023